Time;durP1;ratioP1;P1;durP2;ratioP2;P2;SDS_P1;SDS_P2;PMS_P1;PMS_P2;Temp;Humidity;BMP_temperature;BMP_pressure;BME280_temperature;BME280_humidity;BME280_pressure;Samples;Min_cycle;Max_cycle;Signal;HPM_P1;HPM_P2
2023/01/13 00:01:42;;;;;;;2.25;0.60;;;9.70;90.00;;;;;;5037922;28;20044;-77
2023/01/13 00:04:09;;;;;;;3.75;1.08;;;9.70;90.10;;;;;;5033541;28;20030;-78
2023/01/13 00:06:35;;;;;;;1.00;0.25;;;9.70;90.00;;;;;;5023922;28;20098;-77
2023/01/13 00:09:00;;;;;;;0.77;0.40;;;9.70;90.10;;;;;;5033533;28;20044;-77
2023/01/13 00:11:26;;;;;;;0.75;0.40;;;9.70;90.10;;;;;;5019656;28;20040;-77
2023/01/13 00:13:52;;;;;;;2.42;0.40;;;9.70;90.10;;;;;;5035078;28;20496;-76
2023/01/13 00:16:18;;;;;;;0.32;0.32;;;9.70;90.10;;;;;;5036305;28;20056;-77
2023/01/13 00:18:44;;;;;;;1.17;0.38;;;9.70;90.10;;;;;;5020043;28;20509;-76
2023/01/13 00:21:20;;;;;;;1.95;0.35;;;9.70;90.20;;;;;;5036457;28;20442;-75
2023/01/13 00:23:45;;;;;;;3.17;0.40;;;9.70;90.20;;;;;;5016507;28;20033;-77
2023/01/13 00:26:13;;;;;;;1.88;0.47;;;9.70;90.10;;;;;;5019036;28;20032;-76
2023/01/13 00:28:38;;;;;;;1.17;0.50;;;9.70;90.20;;;;;;5035483;28;20091;-77
2023/01/13 00:31:08;;;;;;;1.67;0.32;;;9.70;90.10;;;;;;5018531;28;20045;-76
2023/01/13 00:33:34;;;;;;;0.60;0.22;;;9.70;90.10;;;;;;5037225;28;20504;-77
2023/01/13 00:36:00;;;;;;;4.70;0.50;;;9.70;90.10;;;;;;5036458;28;20037;-77
2023/01/13 00:38:26;;;;;;;1.42;0.50;;;9.70;90.10;;;;;;5022866;28;20029;-78
2023/01/13 00:41:08;;;;;;;1.48;0.40;;;9.80;90.10;;;;;;5022387;28;20029;-76
2023/01/13 00:43:34;;;;;;;3.13;0.55;;;9.80;90.10;;;;;;5008252;28;20042;-76
2023/01/13 00:46:00;;;;;;;2.30;0.40;;;9.80;90.10;;;;;;5031411;28;20682;-76
2023/01/13 00:48:26;;;;;;;0.80;0.20;;;9.80;90.10;;;;;;5031476;28;20496;-77
2023/01/13 00:51:02;;;;;;;3.15;0.50;;;9.80;90.00;;;;;;5032525;28;20160;-77
2023/01/13 00:53:28;;;;;;;1.98;0.30;;;9.80;90.30;;;;;;5033732;28;20042;-76
2023/01/13 00:56:08;;;;;;;1.67;0.60;;;9.80;90.00;;;;;;5018663;28;20037;-77
2023/01/13 00:58:34;;;;;;;2.35;0.52;;;9.90;90.00;;;;;;5039004;28;20049;-77
2023/01/13 01:01:01;;;;;;;2.92;0.38;;;9.90;90.00;;;;;;5014854;28;21784;-75
2023/01/13 01:03:28;;;;;;;1.90;0.50;;;9.90;89.90;;;;;;5018356;28;20133;-76
2023/01/13 01:05:53;;;;;;;5.32;0.60;;;9.80;89.80;;;;;;5023588;28;20040;-77
2023/01/13 01:08:19;;;;;;;1.58;0.47;;;9.90;89.80;;;;;;5031325;28;20040;-77
2023/01/13 01:10:44;;;;;;;2.22;0.50;;;9.90;89.80;;;;;;5035932;28;20041;-77
2023/01/13 01:13:13;;;;;;;0.52;0.28;;;9.90;89.80;;;;;;5018538;28;20115;-76
2023/01/13 01:15:40;;;;;;;1.77;0.43;;;9.90;89.70;;;;;;5007592;28;20044;-77
2023/01/13 01:18:05;;;;;;;0.60;0.30;;;9.90;89.60;;;;;;5020476;28;20089;-75
2023/01/13 01:20:31;;;;;;;0.88;0.30;;;9.90;89.60;;;;;;5018255;28;20037;-77
2023/01/13 01:22:56;;;;;;;1.48;0.40;;;9.90;89.50;;;;;;5043838;28;20037;-77
2023/01/13 01:25:22;;;;;;;2.47;0.30;;;9.90;89.60;;;;;;5019432;28;20041;-77
2023/01/13 01:27:47;;;;;;;0.82;0.38;;;9.90;89.50;;;;;;5035624;28;20176;-76
2023/01/13 01:30:13;;;;;;;1.13;0.40;;;10.00;89.50;;;;;;5019754;28;20063;-76
2023/01/13 01:32:39;;;;;;;0.90;0.32;;;10.00;89.40;;;;;;5020955;28;20033;-77
2023/01/13 01:35:05;;;;;;;2.78;0.50;;;10.00;89.40;;;;;;5018507;28;20040;-77
2023/01/13 01:37:30;;;;;;;1.65;0.25;;;10.00;89.30;;;;;;5036825;28;20032;-76
2023/01/13 01:39:56;;;;;;;1.23;0.35;;;10.00;89.20;;;;;;5033898;28;20204;-77
2023/01/13 01:45:19;;;;;;;2.00;0.40;;;10.00;89.20;;;;;;5032395;28;20040;-77
2023/01/13 01:48:06;;;;;;;1.35;0.32;;;10.10;89.20;;;;;;5031447;28;20037;-76
2023/01/13 01:50:31;;;;;;;0.30;0.30;;;10.10;89.20;;;;;;5022679;28;20120;-77
2023/01/13 01:53:12;;;;;;;0.98;0.30;;;10.10;89.90;;;;;;5013983;28;20669;-75
2023/01/13 01:55:38;;;;;;;0.68;0.28;;;10.10;89.20;;;;;;5034982;28;20049;-77
2023/01/13 01:58:16;;;;;;;0.77;0.30;;;10.10;89.10;;;;;;5003023;28;20033;-76
2023/01/13 02:00:41;;;;;;;0.95;0.40;;;10.10;89.10;;;;;;5039808;28;20040;-77
2023/01/13 02:03:07;;;;;;;1.27;0.40;;;10.10;89.10;;;;;;5017957;28;20067;-77
2023/01/13 02:05:37;;;;;;;0.35;0.30;;;10.20;89.00;;;;;;5018521;28;20476;-77
2023/01/13 02:08:03;;;;;;;0.40;0.30;;;10.10;88.90;;;;;;5034092;28;20053;-77
2023/01/13 02:10:29;;;;;;;1.05;0.20;;;10.10;88.90;;;;;;5036292;28;20125;-77
2023/01/13 02:12:55;;;;;;;0.40;0.20;;;10.10;88.90;;;;;;5023580;28;20053;-77
2023/01/13 02:15:23;;;;;;;0.55;0.30;;;10.20;88.90;;;;;;5034930;28;20059;-75
2023/01/13 02:18:08;;;;;;;0.68;0.25;;;10.20;88.90;;;;;;5022380;28;20029;-76
2023/01/13 02:20:38;;;;;;;0.55;0.30;;;10.20;88.80;;;;;;5040234;28;20661;-77
2023/01/13 02:26:43;;;;;;;0.88;0.30;;;10.20;88.80;;;;;;5032496;28;20112;-76
2023/01/13 02:32:51;;;;;;;1.75;0.30;;;10.20;88.70;;;;;;5021680;28;20706;-77
2023/01/13 02:35:25;;;;;;;2.40;0.22;;;10.20;88.80;;;;;;5035406;28;20037;-77
2023/01/13 02:37:50;;;;;;;1.30;0.30;;;10.20;88.80;;;;;;5017018;28;20029;-77
2023/01/13 02:40:40;;;;;;;0.82;0.43;;;10.20;88.80;;;;;;5034561;28;20040;-77
2023/01/13 02:46:28;;;;;;;1.15;0.20;;;10.20;88.80;;;;;;4991750;28;20547;-77
2023/01/13 02:48:54;;;;;;;0.30;0.20;;;10.20;88.80;;;;;;4990488;28;20032;-76
2023/01/13 02:51:21;;;;;;;1.38;0.30;;;10.20;88.80;;;;;;5037201;28;20051;-77
2023/01/13 02:54:00;;;;;;;1.08;0.30;;;10.20;88.80;;;;;;5032397;28;20572;-78
2023/01/13 02:56:25;;;;;;;0.25;0.22;;;10.20;88.90;;;;;;5032578;28;20528;-77
2023/01/13 02:58:51;;;;;;;0.82;0.30;;;10.20;89.00;;;;;;5027952;28;20044;-77
2023/01/13 03:01:16;;;;;;;0.90;0.40;;;10.10;89.00;;;;;;5034196;28;20138;-77
2023/01/13 03:03:43;;;;;;;1.63;0.30;;;10.10;88.90;;;;;;5031005;28;20443;-76
2023/01/13 03:06:25;;;;;;;0.82;0.30;;;10.10;89.00;;;;;;5003494;28;20040;-77
2023/01/13 03:09:07;;;;;;;2.03;0.40;;;10.10;89.00;;;;;;5029893;28;20120;-77
2023/01/13 03:11:54;;;;;;;3.28;0.32;;;10.10;89.00;;;;;;5010799;28;20874;-77
2023/01/13 03:14:24;;;;;;;1.38;0.20;;;10.10;89.10;;;;;;5031382;28;20052;-76
2023/01/13 03:17:17;;;;;;;0.40;0.40;;;10.10;89.10;;;;;;5033131;28;20044;-77
2023/01/13 03:20:02;;;;;;;1.05;0.38;;;10.10;89.10;;;;;;5020759;28;20081;-76
2023/01/13 03:22:33;;;;;;;0.22;0.17;;;10.10;89.10;;;;;;5015187;28;20037;-76
2023/01/13 03:25:15;;;;;;;2.30;0.38;;;10.10;89.20;;;;;;5027646;28;20036;-78
2023/01/13 03:27:51;;;;;;;2.10;0.20;;;10.10;89.20;;;;;;5031689;28;20064;-75
2023/01/13 03:30:45;;;;;;;0.28;0.28;;;10.10;89.30;;;;;;5020798;28;20052;-78
2023/01/13 03:33:16;;;;;;;1.35;0.30;;;10.10;89.30;;;;;;5030718;28;20029;-78
2023/01/13 03:35:44;;;;;;;0.20;0.20;;;10.10;89.30;;;;;;5003417;28;20056;-75
2023/01/13 03:38:15;;;;;;;2.90;0.20;;;10.00;89.20;;;;;;5027704;28;20326;-75
2023/01/13 03:40:49;;;;;;;2.75;0.82;;;10.10;89.40;;;;;;5016790;28;20037;-76
2023/01/13 03:46:03;;;;;;;0.30;0.20;;;10.10;89.40;;;;;;5033283;28;20667;-77
2023/01/13 03:48:30;;;;;;;1.15;0.30;;;10.00;89.40;;;;;;5028525;28;20033;-76
2023/01/13 03:50:58;;;;;;;0.65;0.30;;;10.00;89.40;;;;;;5011671;28;20042;-77
2023/01/13 03:53:27;;;;;;;1.33;0.40;;;10.00;89.40;;;;;;5030832;28;20037;-77
2023/01/13 03:55:58;;;;;;;0.35;0.30;;;10.00;89.50;;;;;;5011080;28;20055;-76
2023/01/13 03:58:36;;;;;;;1.80;0.28;;;10.00;89.50;;;;;;5016705;28;20041;-77
2023/01/13 04:01:10;;;;;;;0.80;0.30;;;10.00;89.60;;;;;;5012867;28;20127;-77
2023/01/13 04:03:41;;;;;;;0.28;0.28;;;10.00;89.50;;;;;;5032628;28;20640;-77
2023/01/13 04:06:17;;;;;;;;;;;10.00;89.60;;;;;;5015285;28;20186;-77
2023/01/13 04:08:50;;;;;;;0.90;0.20;;;10.00;89.60;;;;;;5016952;28;20011;-75
2023/01/13 04:11:18;;;;;;;2.20;0.25;;;10.00;90.10;;;;;;5013127;28;20041;-77
2023/01/13 04:13:43;;;;;;;0.43;0.22;;;10.00;89.60;;;;;;5032203;28;20642;-78
2023/01/13 04:16:09;;;;;;;5.88;2.85;;;10.00;89.70;;;;;;5014848;28;20033;-77
2023/01/13 04:18:36;;;;;;;0.95;0.85;;;10.00;89.70;;;;;;5027074;28;20049;-77
2023/01/13 04:21:02;;;;;;;1.88;0.85;;;10.00;89.80;;;;;;5016716;28;20041;-76
2023/01/13 04:23:27;;;;;;;1.23;1.05;;;10.00;89.90;;;;;;5030121;28;20083;-76
2023/01/13 04:25:53;;;;;;;29.08;16.15;;;10.00;89.90;;;;;;5026619;28;20041;-76
2023/01/13 04:28:19;;;;;;;6.65;3.97;;;10.00;90.00;;;;;;5013248;28;20473;-77
2023/01/13 04:30:44;;;;;;;6.65;2.80;;;9.90;90.30;;;;;;5001857;28;20049;-77
2023/01/13 04:33:10;;;;;;;2.42;1.88;;;9.90;90.00;;;;;;5016427;28;20037;-76
2023/01/13 04:35:36;;;;;;;0.60;0.50;;;9.90;90.00;;;;;;5007288;28;20048;-77
2023/01/13 04:38:03;;;;;;;7.35;6.78;;;9.90;90.00;;;;;;5000972;28;20041;-77
2023/01/13 04:40:29;;;;;;;2.60;0.90;;;9.90;90.00;;;;;;5034487;28;20033;-78
2023/01/13 04:42:54;;;;;;;2.15;0.50;;;9.90;90.00;;;;;;5020335;28;20044;-78
2023/01/13 04:45:20;;;;;;;1.70;1.60;;;9.90;90.10;;;;;;5018256;28;20037;-77
2023/01/13 04:47:47;;;;;;;1.23;0.60;;;9.90;90.10;;;;;;5019618;28;20048;-77
2023/01/13 04:50:13;;;;;;;1.58;0.70;;;9.90;90.10;;;;;;5018171;28;20102;-78
2023/01/13 04:52:38;;;;;;;2.15;1.45;;;9.90;90.10;;;;;;5022161;28;20507;-77
2023/01/13 04:55:04;;;;;;;0.75;0.60;;;9.90;90.10;;;;;;5015962;28;20029;-77
2023/01/13 04:57:32;;;;;;;1.58;0.40;;;9.90;90.10;;;;;;5030942;28;20037;-76
2023/01/13 04:59:57;;;;;;;2.80;0.50;;;9.90;90.10;;;;;;5037018;28;20551;-77
2023/01/13 05:02:23;;;;;;;1.67;0.55;;;9.90;90.20;;;;;;4990910;28;20041;-77
2023/01/13 05:04:48;;;;;;;0.50;0.40;;;9.90;90.20;;;;;;5034373;28;20041;-77
2023/01/13 05:07:14;;;;;;;0.30;0.30;;;9.90;90.20;;;;;;5022687;28;20029;-76
2023/01/13 05:09:40;;;;;;;0.52;0.22;;;9.90;90.20;;;;;;5023560;28;20033;-76
2023/01/13 05:17:35;;;;;;;32.22;10.30;;;9.90;90.20;;;;;;5029362;28;20132;-78
2023/01/13 05:20:00;;;;;;;11.32;3.28;;;9.90;90.20;;;;;;5001772;28;20641;-77
2023/01/13 05:25:23;;;;;;;10.77;4.40;;;9.90;90.30;;;;;;5035597;28;20047;-76
2023/01/13 05:27:49;;;;;;;4.38;1.90;;;9.90;90.30;;;;;;5022352;28;20079;-77
2023/01/13 05:30:15;;;;;;;3.25;1.00;;;9.90;90.30;;;;;;5034929;28;20044;-77
2023/01/13 05:32:41;;;;;;;5.07;2.05;;;9.90;90.30;;;;;;5018903;28;20037;-77
2023/01/13 05:35:07;;;;;;;3.00;2.35;;;9.90;90.30;;;;;;5032439;28;20083;-77
2023/01/13 05:37:32;;;;;;;2.47;1.80;;;9.90;90.30;;;;;;5018194;28;20044;-78
2023/01/13 05:45:26;;;;;;;0.70;0.40;;;9.90;90.30;;;;;;5017823;28;20729;-75
2023/01/13 05:47:52;;;;;;;0.88;0.40;;;9.90;90.30;;;;;;5018714;28;20032;-77
2023/01/13 05:50:17;;;;;;;1.13;0.55;;;9.90;90.40;;;;;;5011834;28;20075;-76
2023/01/13 05:52:43;;;;;;;0.40;0.20;;;9.90;90.30;;;;;;5015049;28;20037;-76
2023/01/13 05:55:09;;;;;;;0.75;0.30;;;9.90;90.30;;;;;;5026089;28;20084;-77
2023/01/13 05:57:35;;;;;;;3.83;0.50;;;9.90;90.30;;;;;;5018826;28;20041;-77
2023/01/13 06:00:00;;;;;;;2.78;0.85;;;9.90;90.30;;;;;;5033948;28;20042;-77
2023/01/13 06:02:26;;;;;;;0.45;0.45;;;9.90;90.30;;;;;;5020390;28;20033;-78
2023/01/13 06:04:52;;;;;;;0.43;0.43;;;9.90;90.40;;;;;;5017937;28;20033;-77
2023/01/13 06:07:17;;;;;;;3.83;0.30;;;9.90;90.40;;;;;;5016573;28;20051;-77
2023/01/13 06:09:43;;;;;;;0.38;0.22;;;9.90;90.40;;;;;;5015685;28;20033;-77
2023/01/13 06:12:11;;;;;;;2.28;1.77;;;9.90;90.40;;;;;;5031115;28;20583;-77
2023/01/13 06:14:40;;;;;;;2.60;0.60;;;9.90;90.40;;;;;;5028574;28;20158;-77
2023/01/13 06:17:09;;;;;;;5.25;3.50;;;9.90;90.40;;;;;;5034556;28;20028;-77
2023/01/13 06:19:35;;;;;;;1.27;0.88;;;9.90;90.40;;;;;;5003866;28;20136;-78
2023/01/13 06:22:15;;;;;;;1.10;0.43;;;9.90;90.30;;;;;;5021818;28;20037;-77
2023/01/13 06:24:42;;;;;;;1.40;0.57;;;9.90;90.40;;;;;;5035071;28;20044;-78
2023/01/13 06:27:07;;;;;;;0.70;0.70;;;9.90;90.40;;;;;;5023841;28;20743;-77
2023/01/13 06:29:33;;;;;;;1.67;0.47;;;9.90;90.40;;;;;;5022742;28;20028;-79
2023/01/13 06:32:01;;;;;;;0.68;0.40;;;9.90;90.40;;;;;;5031908;28;20328;-79
2023/01/13 06:34:26;;;;;;;0.70;0.40;;;9.90;90.80;;;;;;5022468;28;20537;-80
2023/01/13 06:36:52;;;;;;;0.47;0.40;;;9.90;90.40;;;;;;5026380;28;20064;-79
2023/01/13 06:39:20;;;;;;;1.15;0.70;;;9.90;90.40;;;;;;5031983;28;20072;-79
2023/01/13 06:44:31;;;;;;;1.40;0.70;;;9.90;90.50;;;;;;5030541;28;20835;-79
2023/01/13 06:46:56;;;;;;;1.70;0.68;;;9.90;90.50;;;;;;5040564;28;20079;-80
2023/01/13 06:49:22;;;;;;;2.67;0.70;;;9.80;90.50;;;;;;5032354;28;20053;-78
2023/01/13 06:51:47;;;;;;;2.08;1.00;;;9.80;90.60;;;;;;4999400;28;20064;-78
2023/01/13 06:54:13;;;;;;;4.75;1.80;;;9.80;90.60;;;;;;5016142;28;20120;-78
2023/01/13 06:56:38;;;;;;;1.75;0.82;;;9.80;90.70;;;;;;5032062;28;20125;-78
2023/01/13 06:59:04;;;;;;;3.28;1.50;;;9.80;90.70;;;;;;5017530;28;20132;-78
2023/01/13 07:01:29;;;;;;;2.42;1.35;;;9.80;90.70;;;;;;5035057;28;20072;-77
2023/01/13 07:03:57;;;;;;;2.28;0.80;;;9.80;90.70;;;;;;5016417;28;20065;-79
2023/01/13 07:06:25;;;;;;;2.00;0.77;;;9.80;90.70;;;;;;5033209;28;20078;-79
2023/01/13 07:08:52;;;;;;;1.52;0.60;;;9.80;90.80;;;;;;5015308;28;20137;-80
2023/01/13 07:11:17;;;;;;;1.17;0.40;;;9.80;90.80;;;;;;4994994;28;20050;-79
2023/01/13 07:16:27;;;;;;;0.82;0.30;;;9.70;90.90;;;;;;5015803;28;20047;-80
2023/01/13 07:18:53;;;;;;;0.20;0.20;;;9.70;90.90;;;;;;5032047;28;20037;-80
2023/01/13 07:21:19;;;;;;;1.38;0.55;;;9.70;90.90;;;;;;5034679;28;20065;-79
2023/01/13 07:23:45;;;;;;;1.33;0.60;;;9.60;90.90;;;;;;5027316;28;20041;-79
2023/01/13 07:26:10;;;;;;;0.63;0.40;;;9.60;90.80;;;;;;5017792;28;20056;-77
2023/01/13 07:28:36;;;;;;;2.47;0.30;;;9.60;90.80;;;;;;5017057;28;20048;-79
2023/01/13 07:31:01;;;;;;;0.30;0.20;;;9.50;90.70;;;;;;4995935;28;20078;-79
2023/01/13 07:33:27;;;;;;;0.32;0.25;;;9.50;90.70;;;;;;5017380;28;20529;-79
2023/01/13 07:35:57;;;;;;;3.30;2.45;;;9.40;90.70;;;;;;5018178;28;20045;-77
2023/01/13 07:38:22;;;;;;;3.05;0.73;;;9.40;90.70;;;;;;5015451;28;20082;-77
2023/01/13 07:40:48;;;;;;;3.30;1.85;;;9.30;90.70;;;;;;5030449;28;20041;-79
2023/01/13 07:43:32;;;;;;;32.75;14.70;;;9.30;90.70;;;;;;5033556;28;20044;-78
2023/01/13 07:45:58;;;;;;;4.22;2.17;;;9.20;90.70;;;;;;5022681;28;20036;-78
2023/01/13 07:48:25;;;;;;;7.32;4.38;;;9.20;90.70;;;;;;5034253;28;20037;-77
2023/01/13 07:50:50;;;;;;;8.73;5.20;;;9.20;90.70;;;;;;5029613;28;20147;-78
2023/01/13 07:53:16;;;;;;;9.23;4.70;;;9.10;90.70;;;;;;5029010;28;20541;-79
2023/01/13 07:55:42;;;;;;;4.57;3.05;;;9.20;90.70;;;;;;5032356;28;20506;-79
2023/01/13 07:58:10;;;;;;;5.30;3.83;;;9.10;90.70;;;;;;5032717;28;20029;-79
2023/01/13 08:00:39;;;;;;;2.10;1.50;;;9.10;90.70;;;;;;5036234;28;20049;-80
2023/01/13 08:03:04;;;;;;;1.23;1.13;;;9.10;90.70;;;;;;5016677;28;20126;-79
2023/01/13 08:05:30;;;;;;;1.13;0.70;;;9.10;90.70;;;;;;5022598;28;20064;-80
2023/01/13 08:07:55;;;;;;;0.70;0.70;;;9.10;90.70;;;;;;5021189;28;20052;-79
2023/01/13 08:10:21;;;;;;;0.22;0.15;;;9.00;90.70;;;;;;5015157;28;20034;-80
2023/01/13 08:15:31;;;;;;;0.30;0.20;;;9.00;90.80;;;;;;5037484;28;20088;-79
2023/01/13 08:17:58;;;;;;;0.30;0.13;;;9.00;90.80;;;;;;5038480;28;20041;-80
2023/01/13 08:20:24;;;;;;;1.67;0.30;;;9.00;90.80;;;;;;5042694;28;20040;-80
2023/01/13 08:22:49;;;;;;;1.45;0.80;;;9.00;90.80;;;;;;5031475;28;20037;-78
2023/01/13 08:25:16;;;;;;;0.90;0.75;;;9.00;90.90;;;;;;5038011;28;20037;-78
2023/01/13 08:27:41;;;;;;;3.40;0.30;;;8.90;90.80;;;;;;5033587;28;20065;-76
2023/01/13 08:30:08;;;;;;;1.25;0.20;;;8.90;90.80;;;;;;5024286;28;20482;-78
2023/01/13 08:32:33;;;;;;;0.30;0.30;;;8.90;90.80;;;;;;5002307;28;20079;-79
2023/01/13 08:34:59;;;;;;;0.55;0.50;;;8.90;90.80;;;;;;5022127;28;20162;-78
2023/01/13 08:37:24;;;;;;;1.73;0.40;;;8.90;90.90;;;;;;5026480;28;20428;-78
2023/01/13 08:39:50;;;;;;;0.93;0.73;;;8.80;90.80;;;;;;5025355;28;20420;-79
2023/01/13 08:42:15;;;;;;;1.35;0.30;;;8.90;90.90;;;;;;5034701;28;20025;-80
2023/01/13 08:44:41;;;;;;;1.13;0.22;;;8.80;90.80;;;;;;5008188;28;20079;-77
2023/01/13 08:47:06;;;;;;;1.05;0.30;;;8.80;90.80;;;;;;5010809;28;20090;-78
2023/01/13 08:49:32;;;;;;;0.68;0.50;;;8.80;90.80;;;;;;5026077;28;20052;-78
2023/01/13 08:51:58;;;;;;;0.45;0.40;;;8.80;90.80;;;;;;5035028;28;20122;-78
2023/01/13 08:54:23;;;;;;;0.38;0.38;;;8.80;90.80;;;;;;5036749;28;20101;-80
2023/01/13 08:56:49;;;;;;;0.70;0.20;;;8.70;90.80;;;;;;5036134;28;20045;-77
2023/01/13 08:59:16;;;;;;;1.65;0.40;;;8.70;90.80;;;;;;5039558;28;20692;-79
2023/01/13 09:01:42;;;;;;;2.33;0.30;;;8.70;90.80;;;;;;5037042;28;20037;-78
2023/01/13 09:04:18;;;;;;;1.58;0.50;;;8.70;90.80;;;;;;5017915;28;20037;-78
2023/01/13 09:06:44;;;;;;;0.85;0.20;;;8.70;90.80;;;;;;5009273;28;20040;-79
2023/01/13 09:09:09;;;;;;;1.48;0.30;;;8.60;90.80;;;;;;5021422;28;20036;-77
2023/01/13 09:14:21;;;;;;;2.28;0.68;;;8.60;90.80;;;;;;5033594;28;20064;-77
2023/01/13 09:16:47;;;;;;;1.00;0.20;;;8.60;91.20;;;;;;5015828;28;20098;-78
2023/01/13 09:19:12;;;;;;;3.83;0.28;;;8.60;90.90;;;;;;5035202;28;20032;-78
2023/01/13 09:21:38;;;;;;;0.38;0.10;;;8.60;90.90;;;;;;5007227;28;20045;-77
2023/01/13 09:24:04;;;;;;;0.63;0.20;;;8.60;90.90;;;;;;5035638;28;20029;-77
2023/01/13 09:26:29;;;;;;;0.20;0.20;;;8.60;90.90;;;;;;5036382;28;20041;-76
2023/01/13 09:28:55;;;;;;;0.50;0.20;;;8.60;90.90;;;;;;5034067;28;20063;-78
2023/01/13 09:31:20;;;;;;;1.25;0.25;;;8.60;90.80;;;;;;5036752;28;20045;-78
2023/01/13 09:36:30;;;;;;;3.00;0.30;;;8.60;90.80;;;;;;5026351;28;20044;-76
2023/01/13 09:38:55;;;;;;;0.77;0.30;;;8.60;90.80;;;;;;5002770;28;20033;-76
2023/01/13 09:44:30;;;;;;;1.58;0.40;;;8.60;90.80;;;;;;5036830;28;20045;-78
2023/01/13 09:46:58;;;;;;;2.08;0.28;;;8.60;90.80;;;;;;5020837;28;20128;-78
2023/01/13 09:49:38;;;;;;;0.30;0.10;;;8.70;90.80;;;;;;5021124;28;20041;-76
2023/01/13 09:52:23;;;;;;;2.35;0.40;;;8.70;90.90;;;;;;5025827;28;20033;-77
2023/01/13 09:55:02;;;;;;;0.50;0.32;;;8.70;90.90;;;;;;5014623;28;22195;-77
2023/01/13 09:57:28;;;;;;;1.60;0.25;;;8.70;90.80;;;;;;5008855;28;20071;-77
2023/01/13 09:59:54;;;;;;;2.55;0.35;;;8.70;90.80;;;;;;5037961;28;20037;-77
2023/01/13 10:02:42;;;;;;;1.50;0.30;;;8.70;90.80;;;;;;5036357;28;20045;-77
2023/01/13 10:05:31;;;;;;;2.10;1.02;;;8.80;90.80;;;;;;5032592;28;20037;-75
2023/01/13 10:07:58;;;;;;;0.60;0.22;;;8.80;90.80;;;;;;5034770;28;20052;-77
2023/01/13 10:10:45;;;;;;;2.35;0.40;;;8.80;90.80;;;;;;5007637;28;20037;-77
2023/01/13 10:13:27;;;;;;;0.80;0.40;;;8.80;90.80;;;;;;5021459;28;20057;-76
2023/01/13 10:16:14;;;;;;;1.15;0.30;;;9.00;90.90;;;;;;5030598;28;20029;-78
2023/01/13 10:18:45;;;;;;;1.30;0.50;;;9.10;91.00;;;;;;5031045;28;20040;-76
2023/01/13 10:21:20;;;;;;;;;;;9.30;90.90;;;;;;5039675;28;20043;-78
2023/01/13 10:23:46;;;;;;;6.88;2.20;;;9.40;90.90;;;;;;5022460;28;19944;-77
2023/01/13 10:26:14;;;;;;;1.02;0.60;;;9.50;90.90;;;;;;5037413;28;20063;-77
2023/01/13 10:28:40;;;;;;;1.50;0.90;;;9.70;90.80;;;;;;5035242;28;20114;-78
2023/01/13 10:31:12;;;;;;;3.13;0.55;;;9.80;90.70;;;;;;5039013;28;20486;-78
2023/01/13 10:33:37;;;;;;;0.85;0.60;;;10.00;90.60;;;;;;5017261;28;20069;-77
2023/01/13 10:36:11;;;;;;;2.28;1.10;;;10.10;90.50;;;;;;5016831;28;20871;-77
2023/01/13 10:38:41;;;;;;;3.70;0.88;;;10.20;90.30;;;;;;5030620;28;20038;-78
2023/01/13 10:41:15;;;;;;;2.83;0.60;;;10.30;90.20;;;;;;5018632;28;20500;-77
2023/01/13 10:44:01;;;;;;;8.48;0.90;;;10.30;90.00;;;;;;5029474;28;20033;-78
2023/01/13 10:46:26;;;;;;;3.80;0.60;;;10.30;89.60;;;;;;5036797;28;20044;-78
2023/01/13 10:49:02;;;;;;;1.23;0.63;;;10.30;89.80;;;;;;5036251;28;20040;-78
2023/01/13 10:51:36;;;;;;;2.28;0.85;;;10.40;89.80;;;;;;5018984;28;20041;-77
2023/01/13 10:54:18;;;;;;;1.23;0.50;;;10.40;90.00;;;;;;5031469;28;20106;-78
2023/01/13 10:56:44;;;;;;;2.88;0.68;;;10.50;89.80;;;;;;5024782;28;20041;-78
2023/01/13 10:59:21;;;;;;;0.82;0.50;;;10.60;89.90;;;;;;5038269;28;20668;-77
2023/01/13 11:02:06;;;;;;;2.15;0.60;;;10.70;89.60;;;;;;5030257;28;20076;-78
2023/01/13 11:04:41;;;;;;;1.67;0.40;;;10.80;88.90;;;;;;5014176;28;20487;-78
2023/01/13 11:07:30;;;;;;;1.08;0.38;;;10.80;89.00;;;;;;5035455;28;20040;-78
2023/01/13 11:10:29;;;;;;;2.03;0.55;;;10.80;88.60;;;;;;5035023;28;20060;-78
2023/01/13 11:13:16;;;;;;;3.20;0.40;;;10.80;87.70;;;;;;5019676;28;20080;-76
2023/01/13 11:16:04;;;;;;;2.85;0.63;;;10.80;87.50;;;;;;5029815;28;20037;-77
2023/01/13 11:21:54;;;;;;;2.95;0.50;;;10.70;88.00;;;;;;5027233;28;21105;-78
2023/01/13 11:24:28;;;;;;;3.40;0.90;;;10.60;87.20;;;;;;5001295;28;20063;-78
2023/01/13 11:27:20;;;;;;;0.85;0.45;;;10.60;87.00;;;;;;5019106;28;20081;-79
2023/01/13 11:30:08;;;;;;;4.43;0.77;;;10.50;86.80;;;;;;5024874;28;20104;-78
2023/01/13 11:32:38;;;;;;;2.70;0.47;;;10.50;86.60;;;;;;5022608;28;20049;-77
2023/01/13 11:35:14;;;;;;;8.38;1.02;;;10.50;86.90;;;;;;5014321;28;20029;-78
2023/01/13 11:37:40;;;;;;;3.45;0.80;;;10.60;86.80;;;;;;5032628;28;20047;-77
2023/01/13 11:40:26;;;;;;;4.75;1.00;;;10.70;86.80;;;;;;5037445;28;20036;-78
2023/01/13 11:42:56;;;;;;;5.70;1.83;;;10.70;85.60;;;;;;5016727;28;20053;-78
2023/01/13 11:45:37;;;;;;;3.53;1.50;;;10.80;86.00;;;;;;5019077;28;20413;-79
2023/01/13 11:48:03;;;;;;;5.63;1.60;;;10.80;85.70;;;;;;5035419;28;20095;-78
2023/01/13 11:50:53;;;;;;;3.50;1.52;;;10.80;85.80;;;;;;5025310;28;20037;-80
2023/01/13 11:53:51;;;;;;;4.13;0.65;;;10.80;85.70;;;;;;5029969;28;20507;-78
2023/01/13 11:56:44;;;;;;;4.68;1.42;;;10.90;85.00;;;;;;5032459;28;20609;-77
2023/01/13 11:59:31;;;;;;;2.22;0.98;;;11.00;85.00;;;;;;5034483;28;20037;-78
2023/01/13 12:02:17;;;;;;;1.52;0.60;;;11.00;85.00;;;;;;5048683;28;20795;-77
2023/01/13 12:04:59;;;;;;;4.10;1.17;;;11.10;84.50;;;;;;5035825;28;20045;-77
2023/01/13 12:07:35;;;;;;;2.70;0.70;;;11.10;84.30;;;;;;5040321;28;20028;-77
2023/01/13 12:10:02;;;;;;;2.03;0.68;;;11.10;84.20;;;;;;5022887;28;20483;-78
2023/01/13 12:12:38;;;;;;;2.72;0.70;;;11.00;84.00;;;;;;5021181;28;20068;-77
2023/01/13 12:15:51;;;;;;;4.18;0.80;;;11.00;83.70;;;;;;5022624;28;20048;-78
2023/01/13 12:18:40;;;;;;;3.95;1.00;;;10.90;83.00;;;;;;5026776;28;20568;-77
2023/01/13 12:21:25;;;;;;;2.90;0.60;;;10.90;83.60;;;;;;5029338;28;20543;-76
2023/01/13 12:24:00;;;;;;;3.42;0.50;;;10.80;82.90;;;;;;5032876;28;20037;-76
2023/01/13 12:26:25;;;;;;;2.08;0.50;;;10.80;83.20;;;;;;5036018;28;20056;-77
2023/01/13 12:29:01;;;;;;;3.08;0.70;;;10.70;83.40;;;;;;5008101;28;20052;-77
2023/01/13 12:31:27;;;;;;;2.38;0.55;;;10.70;83.10;;;;;;5035623;28;20041;-77
2023/01/13 12:34:00;;;;;;;1.80;0.70;;;10.60;83.30;;;;;;5023331;28;20110;-77
2023/01/13 12:36:40;;;;;;;3.28;0.95;;;10.60;83.00;;;;;;5025420;28;20721;-77
2023/01/13 12:39:30;;;;;;;3.00;0.82;;;10.70;82.90;;;;;;5044205;28;20052;-77
2023/01/13 12:45:05;;;;;;;1.48;0.70;;;10.70;82.80;;;;;;5032746;28;20108;-78
2023/01/13 12:47:32;;;;;;;4.50;0.90;;;10.70;82.40;;;;;;5040139;28;20122;-76
2023/01/13 12:50:25;;;;;;;4.32;1.02;;;10.70;82.30;;;;;;5037279;28;20154;-75
2023/01/13 12:52:54;;;;;;;3.00;0.70;;;10.60;81.20;;;;;;5039351;28;20051;-77
2023/01/13 12:55:26;;;;;;;4.82;0.98;;;10.60;81.60;;;;;;5021746;28;20032;-77
2023/01/13 12:58:03;;;;;;;3.03;0.60;;;10.60;81.70;;;;;;5033621;28;20090;-77
2023/01/13 13:00:34;;;;;;;6.25;0.80;;;10.60;81.80;;;;;;5040257;28;20041;-78
2023/01/13 13:03:12;;;;;;;5.75;0.75;;;10.60;81.50;;;;;;5032566;28;20796;-78
2023/01/13 13:05:53;;;;;;;3.42;0.70;;;10.60;81.20;;;;;;5035576;28;20158;-77
2023/01/13 13:08:39;;;;;;;4.43;1.95;;;10.60;81.50;;;;;;5033286;28;20514;-77
2023/01/13 13:14:10;;;;;;;4.50;1.03;;;10.60;80.90;;;;;;5034932;28;20044;-77
2023/01/13 13:16:45;;;;;;;11.23;1.83;;;10.70;81.20;;;;;;5004970;28;20279;-75
2023/01/13 13:19:20;;;;;;;3.33;0.90;;;10.70;81.00;;;;;;5021460;28;20033;-76
2023/01/13 13:22:13;;;;;;;7.50;1.20;;;10.80;80.80;;;;;;5035521;28;20098;-77
2023/01/13 13:24:39;;;;;;;3.42;0.70;;;10.90;80.30;;;;;;5032902;28;20052;-77
2023/01/13 13:27:26;;;;;;;3.13;0.82;;;11.00;80.80;;;;;;5037503;28;20095;-77
2023/01/13 13:30:10;;;;;;;6.82;0.90;;;11.00;80.60;;;;;;5034824;28;20101;-78
2023/01/13 13:32:39;;;;;;;17.90;1.67;;;11.20;80.80;;;;;;5036776;28;20133;-77
2023/01/13 13:35:25;;;;;;;10.75;1.70;;;11.30;80.50;;;;;;5037706;28;20036;-78
2023/01/13 13:46:47;;;;;;;4.82;0.70;;;11.40;79.50;;;;;;5029043;28;20094;-77
2023/01/13 13:49:18;;;;;;;5.00;0.70;;;11.40;78.90;;;;;;5036740;28;20048;-76
2023/01/13 13:51:57;;;;;;;4.93;0.93;;;11.40;79.20;;;;;;5020771;28;20102;-78
2023/01/13 13:54:22;;;;;;;5.43;1.23;;;11.50;79.10;;;;;;5003930;28;20033;-76
2023/01/13 13:56:49;;;;;;;3.13;1.05;;;11.50;78.80;;;;;;5019947;28;20032;-76
2023/01/13 13:59:22;;;;;;;7.50;1.40;;;11.50;78.60;;;;;;5033555;28;20043;-77
2023/01/13 14:02:00;;;;;;;2.30;0.77;;;11.50;78.30;;;;;;5033120;28;20036;-76
2023/01/13 14:04:30;;;;;;;4.65;0.70;;;11.50;77.90;;;;;;5035240;28;20083;-77
2023/01/13 14:06:57;;;;;;;2.50;0.85;;;11.50;78.00;;;;;;5010377;28;20036;-77
2023/01/13 14:09:23;;;;;;;7.45;0.77;;;11.40;77.80;;;;;;5031925;28;20126;-76
2023/01/13 14:12:00;;;;;;;6.00;0.75;;;11.40;77.70;;;;;;5019686;28;20045;-75
2023/01/13 14:14:26;;;;;;;2.28;0.63;;;11.40;77.40;;;;;;5012547;28;20041;-75
2023/01/13 14:16:53;;;;;;;4.72;0.95;;;11.30;77.60;;;;;;5032926;28;20548;-77